sensor_id;sensor_type;location;lat;lon;timestamp;P1;durP1;ratioP1;P2;durP2;ratioP2
11344;SDS011;5727;42.600;23.028;2022-07-21T00:01:21;15.70;;;6.93;;
11344;SDS011;5727;42.600;23.028;2022-07-21T00:03:49;15.13;;;7.97;;
11344;SDS011;5727;42.600;23.028;2022-07-21T00:06:18;12.57;;;7.17;;
11344;SDS011;5727;42.600;23.028;2022-07-21T00:08:45;14.47;;;7.87;;
11344;SDS011;5727;42.600;23.028;2022-07-21T00:11:12;14.20;;;7.43;;
11344;SDS011;5727;42.600;23.028;2022-07-21T00:13:48;13.90;;;7.27;;
11344;SDS011;5727;42.600;23.028;2022-07-21T00:16:16;9.93;;;6.57;;
11344;SDS011;5727;42.600;23.028;2022-07-21T00:18:48;16.00;;;7.03;;
11344;SDS011;5727;42.600;23.028;2022-07-21T00:21:15;8.17;;;6.03;;
11344;SDS011;5727;42.600;23.028;2022-07-21T00:23:47;9.77;;;5.80;;
11344;SDS011;5727;42.600;23.028;2022-07-21T00:26:14;6.60;;;4.93;;
11344;SDS011;5727;42.600;23.028;2022-07-21T00:28:43;8.87;;;5.10;;
11344;SDS011;5727;42.600;23.028;2022-07-21T00:31:13;11.13;;;5.37;;
11344;SDS011;5727;42.600;23.028;2022-07-21T00:33:41;10.30;;;4.27;;
11344;SDS011;5727;42.600;23.028;2022-07-21T00:36:12;8.63;;;4.37;;
11344;SDS011;5727;42.600;23.028;2022-07-21T00:38:43;6.53;;;3.30;;
11344;SDS011;5727;42.600;23.028;2022-07-21T00:41:10;6.67;;;3.90;;
11344;SDS011;5727;42.600;23.028;2022-07-21T00:46:09;7.43;;;3.87;;
11344;SDS011;5727;42.600;23.028;2022-07-21T00:48:42;10.70;;;3.87;;
11344;SDS011;5727;42.600;23.028;2022-07-21T00:51:11;7.90;;;3.67;;
11344;SDS011;5727;42.600;23.028;2022-07-21T00:53:38;8.93;;;4.03;;
11344;SDS011;5727;42.600;23.028;2022-07-21T00:56:08;10.77;;;4.37;;
11344;SDS011;5727;42.600;23.028;2022-07-21T00:58:36;16.00;;;4.30;;
11344;SDS011;5727;42.600;23.028;2022-07-21T01:01:06;9.30;;;5.03;;
11344;SDS011;5727;42.600;23.028;2022-07-21T01:03:39;13.73;;;5.70;;
11344;SDS011;5727;42.600;23.028;2022-07-21T01:06:15;20.13;;;6.57;;
11344;SDS011;5727;42.600;23.028;2022-07-21T01:08:42;15.67;;;6.37;;
11344;SDS011;5727;42.600;23.028;2022-07-21T01:11:17;13.47;;;6.90;;
11344;SDS011;5727;42.600;23.028;2022-07-21T01:13:47;17.30;;;6.97;;
11344;SDS011;5727;42.600;23.028;2022-07-21T01:16:20;21.07;;;7.50;;
11344;SDS011;5727;42.600;23.028;2022-07-21T01:18:48;17.67;;;6.87;;
11344;SDS011;5727;42.600;23.028;2022-07-21T01:24:07;16.40;;;6.93;;
11344;SDS011;5727;42.600;23.028;2022-07-21T01:26:43;14.57;;;7.00;;
11344;SDS011;5727;42.600;23.028;2022-07-21T01:29:12;20.77;;;7.93;;
11344;SDS011;5727;42.600;23.028;2022-07-21T01:31:40;16.67;;;7.37;;
11344;SDS011;5727;42.600;23.028;2022-07-21T01:34:11;14.53;;;6.37;;
11344;SDS011;5727;42.600;23.028;2022-07-21T01:36:40;14.33;;;6.50;;
11344;SDS011;5727;42.600;23.028;2022-07-21T01:39:07;15.97;;;6.57;;
11344;SDS011;5727;42.600;23.028;2022-07-21T01:41:48;11.90;;;5.90;;
11344;SDS011;5727;42.600;23.028;2022-07-21T01:44:16;13.20;;;6.87;;
11344;SDS011;5727;42.600;23.028;2022-07-21T01:47:03;10.87;;;5.77;;
11344;SDS011;5727;42.600;23.028;2022-07-21T01:49:30;8.53;;;4.90;;
11344;SDS011;5727;42.600;23.028;2022-07-21T01:51:59;9.40;;;5.23;;
11344;SDS011;5727;42.600;23.028;2022-07-21T01:54:29;8.90;;;5.07;;
11344;SDS011;5727;42.600;23.028;2022-07-21T01:56:57;10.17;;;4.83;;
11344;SDS011;5727;42.600;23.028;2022-07-21T01:59:26;9.87;;;5.33;;
11344;SDS011;5727;42.600;23.028;2022-07-21T02:01:53;11.07;;;6.20;;
11344;SDS011;5727;42.600;23.028;2022-07-21T02:04:22;8.43;;;5.23;;
11344;SDS011;5727;42.600;23.028;2022-07-21T02:06:49;12.10;;;4.93;;
11344;SDS011;5727;42.600;23.028;2022-07-21T02:09:19;14.03;;;5.83;;
11344;SDS011;5727;42.600;23.028;2022-07-21T02:11:48;15.47;;;6.07;;
11344;SDS011;5727;42.600;23.028;2022-07-21T02:14:15;13.63;;;5.70;;
11344;SDS011;5727;42.600;23.028;2022-07-21T02:16:46;20.90;;;6.87;;
11344;SDS011;5727;42.600;23.028;2022-07-21T02:19:17;14.33;;;5.67;;
11344;SDS011;5727;42.600;23.028;2022-07-21T02:21:44;12.17;;;5.47;;
11344;SDS011;5727;42.600;23.028;2022-07-21T02:24:20;12.23;;;5.70;;
11344;SDS011;5727;42.600;23.028;2022-07-21T02:26:47;17.53;;;6.40;;
11344;SDS011;5727;42.600;23.028;2022-07-21T02:29:15;17.10;;;7.13;;
11344;SDS011;5727;42.600;23.028;2022-07-21T02:31:42;13.40;;;5.90;;
11344;SDS011;5727;42.600;23.028;2022-07-21T02:34:10;17.80;;;6.87;;
11344;SDS011;5727;42.600;23.028;2022-07-21T02:36:38;14.33;;;6.10;;
11344;SDS011;5727;42.600;23.028;2022-07-21T02:39:06;15.47;;;6.40;;
11344;SDS011;5727;42.600;23.028;2022-07-21T02:41:35;15.23;;;5.93;;
11344;SDS011;5727;42.600;23.028;2022-07-21T02:44:02;15.57;;;6.40;;
11344;SDS011;5727;42.600;23.028;2022-07-21T02:46:34;17.00;;;6.80;;
11344;SDS011;5727;42.600;23.028;2022-07-21T02:49:04;14.70;;;6.23;;
11344;SDS011;5727;42.600;23.028;2022-07-21T02:51:33;12.80;;;5.93;;
11344;SDS011;5727;42.600;23.028;2022-07-21T02:54:00;11.17;;;6.13;;
11344;SDS011;5727;42.600;23.028;2022-07-21T02:56:29;16.57;;;6.90;;
11344;SDS011;5727;42.600;23.028;2022-07-21T02:59:00;14.87;;;6.20;;
11344;SDS011;5727;42.600;23.028;2022-07-21T03:01:27;15.80;;;6.73;;
11344;SDS011;5727;42.600;23.028;2022-07-21T03:03:58;19.37;;;7.60;;
11344;SDS011;5727;42.600;23.028;2022-07-21T03:06:27;17.80;;;7.33;;
11344;SDS011;5727;42.600;23.028;2022-07-21T03:08:59;17.93;;;7.57;;
11344;SDS011;5727;42.600;23.028;2022-07-21T03:11:33;18.53;;;6.70;;
11344;SDS011;5727;42.600;23.028;2022-07-21T03:16:50;16.17;;;6.37;;
11344;SDS011;5727;42.600;23.028;2022-07-21T03:19:22;16.60;;;6.63;;
11344;SDS011;5727;42.600;23.028;2022-07-21T03:21:49;15.87;;;6.57;;
11344;SDS011;5727;42.600;23.028;2022-07-21T03:24:22;15.33;;;6.53;;
11344;SDS011;5727;42.600;23.028;2022-07-21T03:29:29;20.37;;;8.20;;
11344;SDS011;5727;42.600;23.028;2022-07-21T03:31:56;19.03;;;8.63;;
11344;SDS011;5727;42.600;23.028;2022-07-21T03:34:34;17.70;;;7.13;;
11344;SDS011;5727;42.600;23.028;2022-07-21T03:37:02;13.03;;;6.57;;
11344;SDS011;5727;42.600;23.028;2022-07-21T03:39:37;20.83;;;7.00;;
11344;SDS011;5727;42.600;23.028;2022-07-21T03:42:05;18.27;;;7.07;;
11344;SDS011;5727;42.600;23.028;2022-07-21T03:44:36;18.97;;;7.70;;
11344;SDS011;5727;42.600;23.028;2022-07-21T03:47:03;19.10;;;6.97;;
11344;SDS011;5727;42.600;23.028;2022-07-21T03:49:31;18.40;;;6.13;;
11344;SDS011;5727;42.600;23.028;2022-07-21T03:52:01;17.23;;;6.33;;
11344;SDS011;5727;42.600;23.028;2022-07-21T03:54:28;21.43;;;6.27;;
11344;SDS011;5727;42.600;23.028;2022-07-21T03:59:32;13.17;;;6.47;;
11344;SDS011;5727;42.600;23.028;2022-07-21T04:02:04;17.83;;;6.10;;
11344;SDS011;5727;42.600;23.028;2022-07-21T04:04:31;17.57;;;6.73;;
11344;SDS011;5727;42.600;23.028;2022-07-21T04:06:58;12.97;;;6.33;;
11344;SDS011;5727;42.600;23.028;2022-07-21T04:09:28;14.27;;;6.50;;
11344;SDS011;5727;42.600;23.028;2022-07-21T04:11:58;13.40;;;6.87;;
11344;SDS011;5727;42.600;23.028;2022-07-21T04:14:32;13.30;;;7.10;;
11344;SDS011;5727;42.600;23.028;2022-07-21T04:17:05;18.43;;;6.77;;
11344;SDS011;5727;42.600;23.028;2022-07-21T04:19:33;12.70;;;6.13;;
11344;SDS011;5727;42.600;23.028;2022-07-21T04:22:03;14.90;;;7.40;;
11344;SDS011;5727;42.600;23.028;2022-07-21T04:27:06;17.43;;;6.40;;
11344;SDS011;5727;42.600;23.028;2022-07-21T04:29:42;15.97;;;6.13;;
11344;SDS011;5727;42.600;23.028;2022-07-21T04:32:15;12.47;;;6.77;;
11344;SDS011;5727;42.600;23.028;2022-07-21T04:34:45;16.23;;;7.10;;
11344;SDS011;5727;42.600;23.028;2022-07-21T04:37:22;18.73;;;6.97;;
11344;SDS011;5727;42.600;23.028;2022-07-21T04:39:50;17.47;;;7.07;;
11344;SDS011;5727;42.600;23.028;2022-07-21T04:42:20;14.90;;;6.67;;
11344;SDS011;5727;42.600;23.028;2022-07-21T04:44:50;17.93;;;6.90;;
11344;SDS011;5727;42.600;23.028;2022-07-21T04:47:30;16.43;;;6.40;;
11344;SDS011;5727;42.600;23.028;2022-07-21T04:49:59;15.73;;;7.67;;
11344;SDS011;5727;42.600;23.028;2022-07-21T04:52:33;23.03;;;7.33;;
11344;SDS011;5727;42.600;23.028;2022-07-21T04:57:35;21.43;;;7.60;;
11344;SDS011;5727;42.600;23.028;2022-07-21T05:00:04;17.33;;;7.17;;
11344;SDS011;5727;42.600;23.028;2022-07-21T05:02:34;21.43;;;7.67;;
11344;SDS011;5727;42.600;23.028;2022-07-21T05:05:01;20.67;;;6.77;;
11344;SDS011;5727;42.600;23.028;2022-07-21T05:07:30;23.10;;;8.17;;
11344;SDS011;5727;42.600;23.028;2022-07-21T05:09:58;22.47;;;7.20;;
11344;SDS011;5727;42.600;23.028;2022-07-21T05:12:34;24.60;;;7.20;;
11344;SDS011;5727;42.600;23.028;2022-07-21T05:15:02;22.53;;;7.37;;
11344;SDS011;5727;42.600;23.028;2022-07-21T05:17:30;17.13;;;7.37;;
11344;SDS011;5727;42.600;23.028;2022-07-21T05:20:01;20.63;;;7.63;;
11344;SDS011;5727;42.600;23.028;2022-07-21T05:22:29;20.20;;;7.13;;
11344;SDS011;5727;42.600;23.028;2022-07-21T05:24:57;21.57;;;6.97;;
11344;SDS011;5727;42.600;23.028;2022-07-21T05:27:24;22.60;;;7.40;;
11344;SDS011;5727;42.600;23.028;2022-07-21T05:29:51;19.37;;;8.10;;
11344;SDS011;5727;42.600;23.028;2022-07-21T05:32:20;18.77;;;6.90;;
11344;SDS011;5727;42.600;23.028;2022-07-21T05:34:47;23.63;;;7.70;;
11344;SDS011;5727;42.600;23.028;2022-07-21T05:37:16;23.97;;;7.77;;
11344;SDS011;5727;42.600;23.028;2022-07-21T05:39:44;31.10;;;8.47;;
11344;SDS011;5727;42.600;23.028;2022-07-21T05:42:11;25.60;;;8.37;;
11344;SDS011;5727;42.600;23.028;2022-07-21T05:44:38;19.03;;;7.97;;
11344;SDS011;5727;42.600;23.028;2022-07-21T05:47:06;19.07;;;7.73;;
11344;SDS011;5727;42.600;23.028;2022-07-21T05:49:34;21.97;;;7.47;;
11344;SDS011;5727;42.600;23.028;2022-07-21T05:52:03;16.53;;;7.23;;
11344;SDS011;5727;42.600;23.028;2022-07-21T05:54:32;25.73;;;8.73;;
11344;SDS011;5727;42.600;23.028;2022-07-21T05:57:00;24.23;;;9.67;;
11344;SDS011;5727;42.600;23.028;2022-07-21T05:59:28;24.90;;;8.23;;
11344;SDS011;5727;42.600;23.028;2022-07-21T06:04:58;27.23;;;7.40;;
11344;SDS011;5727;42.600;23.028;2022-07-21T06:07:26;17.97;;;6.70;;
11344;SDS011;5727;42.600;23.028;2022-07-21T06:09:54;15.20;;;5.53;;
11344;SDS011;5727;42.600;23.028;2022-07-21T06:12:26;15.67;;;5.93;;
11344;SDS011;5727;42.600;23.028;2022-07-21T06:14:56;20.73;;;6.53;;
11344;SDS011;5727;42.600;23.028;2022-07-21T06:17:23;15.40;;;6.57;;
11344;SDS011;5727;42.600;23.028;2022-07-21T06:19:51;10.53;;;5.67;;
11344;SDS011;5727;42.600;23.028;2022-07-21T06:22:18;14.63;;;5.90;;
11344;SDS011;5727;42.600;23.028;2022-07-21T06:24:45;15.90;;;6.47;;
11344;SDS011;5727;42.600;23.028;2022-07-21T06:27:14;16.83;;;5.97;;
11344;SDS011;5727;42.600;23.028;2022-07-21T06:29:44;15.97;;;5.90;;
11344;SDS011;5727;42.600;23.028;2022-07-21T06:32:12;15.37;;;5.90;;
11344;SDS011;5727;42.600;23.028;2022-07-21T06:34:39;17.63;;;6.43;;
11344;SDS011;5727;42.600;23.028;2022-07-21T06:37:06;18.37;;;5.80;;
11344;SDS011;5727;42.600;23.028;2022-07-21T06:39:35;12.27;;;5.30;;
11344;SDS011;5727;42.600;23.028;2022-07-21T06:42:06;17.07;;;5.60;;
11344;SDS011;5727;42.600;23.028;2022-07-21T06:44:47;16.37;;;5.40;;
11344;SDS011;5727;42.600;23.028;2022-07-21T06:47:14;16.87;;;6.00;;
11344;SDS011;5727;42.600;23.028;2022-07-21T06:49:42;15.97;;;5.93;;
11344;SDS011;5727;42.600;23.028;2022-07-21T06:52:09;14.27;;;5.17;;
11344;SDS011;5727;42.600;23.028;2022-07-21T06:54:39;13.67;;;5.67;;
11344;SDS011;5727;42.600;23.028;2022-07-21T06:57:06;14.90;;;4.97;;
11344;SDS011;5727;42.600;23.028;2022-07-21T06:59:33;12.17;;;5.00;;
11344;SDS011;5727;42.600;23.028;2022-07-21T07:02:02;16.03;;;5.50;;
11344;SDS011;5727;42.600;23.028;2022-07-21T07:04:29;13.03;;;4.70;;
11344;SDS011;5727;42.600;23.028;2022-07-21T07:06:59;12.90;;;4.83;;
11344;SDS011;5727;42.600;23.028;2022-07-21T07:09:26;14.00;;;5.30;;
11344;SDS011;5727;42.600;23.028;2022-07-21T07:11:56;11.13;;;4.10;;
11344;SDS011;5727;42.600;23.028;2022-07-21T07:14:28;7.97;;;3.30;;
11344;SDS011;5727;42.600;23.028;2022-07-21T07:16:56;6.97;;;3.40;;
11344;SDS011;5727;42.600;23.028;2022-07-21T07:19:32;6.33;;;2.57;;
11344;SDS011;5727;42.600;23.028;2022-07-21T07:21:59;7.27;;;3.00;;
11344;SDS011;5727;42.600;23.028;2022-07-21T07:24:30;6.13;;;2.00;;
11344;SDS011;5727;42.600;23.028;2022-07-21T07:26:57;6.63;;;2.43;;
11344;SDS011;5727;42.600;23.028;2022-07-21T07:29:24;5.97;;;1.97;;
11344;SDS011;5727;42.600;23.028;2022-07-21T07:31:55;5.13;;;1.90;;
11344;SDS011;5727;42.600;23.028;2022-07-21T07:34:23;4.63;;;2.60;;
11344;SDS011;5727;42.600;23.028;2022-07-21T07:36:51;6.87;;;2.27;;
11344;SDS011;5727;42.600;23.028;2022-07-21T07:39:18;6.40;;;2.00;;
11344;SDS011;5727;42.600;23.028;2022-07-21T07:41:45;5.37;;;1.87;;
11344;SDS011;5727;42.600;23.028;2022-07-21T07:44:14;4.17;;;1.80;;
11344;SDS011;5727;42.600;23.028;2022-07-21T07:46:41;6.07;;;1.93;;
11344;SDS011;5727;42.600;23.028;2022-07-21T07:49:08;6.47;;;2.23;;
11344;SDS011;5727;42.600;23.028;2022-07-21T07:51:37;5.83;;;1.90;;
11344;SDS011;5727;42.600;23.028;2022-07-21T07:54:05;6.53;;;2.20;;
11344;SDS011;5727;42.600;23.028;2022-07-21T07:56:32;3.03;;;1.70;;
11344;SDS011;5727;42.600;23.028;2022-07-21T07:59:01;6.10;;;2.57;;
11344;SDS011;5727;42.600;23.028;2022-07-21T08:01:28;5.50;;;1.80;;
11344;SDS011;5727;42.600;23.028;2022-07-21T08:03:55;5.63;;;2.20;;
11344;SDS011;5727;42.600;23.028;2022-07-21T08:06:22;4.23;;;1.63;;
11344;SDS011;5727;42.600;23.028;2022-07-21T08:08:50;3.57;;;2.00;;
11344;SDS011;5727;42.600;23.028;2022-07-21T08:11:18;5.30;;;1.90;;
11344;SDS011;5727;42.600;23.028;2022-07-21T08:13:45;7.87;;;1.60;;
11344;SDS011;5727;42.600;23.028;2022-07-21T08:16:12;2.97;;;1.80;;
11344;SDS011;5727;42.600;23.028;2022-07-21T08:18:40;6.43;;;2.20;;
11344;SDS011;5727;42.600;23.028;2022-07-21T08:21:07;4.03;;;1.70;;
11344;SDS011;5727;42.600;23.028;2022-07-21T08:23:35;2.67;;;1.73;;
11344;SDS011;5727;42.600;23.028;2022-07-21T08:26:02;2.23;;;1.83;;
11344;SDS011;5727;42.600;23.028;2022-07-21T08:28:32;3.87;;;1.77;;
11344;SDS011;5727;42.600;23.028;2022-07-21T08:30:59;4.20;;;1.60;;
11344;SDS011;5727;42.600;23.028;2022-07-21T08:33:26;3.10;;;1.90;;
11344;SDS011;5727;42.600;23.028;2022-07-21T08:35:54;7.40;;;1.97;;
11344;SDS011;5727;42.600;23.028;2022-07-21T08:38:22;4.40;;;1.77;;
11344;SDS011;5727;42.600;23.028;2022-07-21T08:40:49;4.17;;;1.90;;
11344;SDS011;5727;42.600;23.028;2022-07-21T08:43:18;5.70;;;1.90;;
11344;SDS011;5727;42.600;23.028;2022-07-21T08:45:55;4.00;;;1.87;;
11344;SDS011;5727;42.600;23.028;2022-07-21T08:48:23;2.83;;;1.90;;
11344;SDS011;5727;42.600;23.028;2022-07-21T08:50:52;4.50;;;2.30;;
11344;SDS011;5727;42.600;23.028;2022-07-21T08:53:19;4.33;;;1.87;;
11344;SDS011;5727;42.600;23.028;2022-07-21T08:55:46;3.20;;;1.87;;
11344;SDS011;5727;42.600;23.028;2022-07-21T09:00:51;4.33;;;2.17;;
11344;SDS011;5727;42.600;23.028;2022-07-21T09:03:23;2.67;;;1.63;;
11344;SDS011;5727;42.600;23.028;2022-07-21T09:06:00;2.83;;;1.40;;
11344;SDS011;5727;42.600;23.028;2022-07-21T09:08:30;3.57;;;1.60;;
11344;SDS011;5727;42.600;23.028;2022-07-21T09:11:12;3.27;;;1.60;;
11344;SDS011;5727;42.600;23.028;2022-07-21T09:13:44;3.03;;;1.27;;
11344;SDS011;5727;42.600;23.028;2022-07-21T09:16:23;1.80;;;1.33;;
11344;SDS011;5727;42.600;23.028;2022-07-21T09:19:06;2.77;;;1.50;;
11344;SDS011;5727;42.600;23.028;2022-07-21T09:21:41;4.03;;;1.70;;
11344;SDS011;5727;42.600;23.028;2022-07-21T09:24:12;2.50;;;1.43;;
11344;SDS011;5727;42.600;23.028;2022-07-21T09:27:00;2.93;;;1.20;;
11344;SDS011;5727;42.600;23.028;2022-07-21T09:29:34;2.00;;;1.33;;
11344;SDS011;5727;42.600;23.028;2022-07-21T09:32:17;3.57;;;1.60;;
11344;SDS011;5727;42.600;23.028;2022-07-21T09:34:51;4.40;;;1.40;;
11344;SDS011;5727;42.600;23.028;2022-07-21T09:37:20;1.93;;;1.10;;
11344;SDS011;5727;42.600;23.028;2022-07-21T09:39:50;2.77;;;1.33;;
11344;SDS011;5727;42.600;23.028;2022-07-21T09:42:24;4.50;;;1.80;;
11344;SDS011;5727;42.600;23.028;2022-07-21T09:44:53;2.97;;;1.70;;
11344;SDS011;5727;42.600;23.028;2022-07-21T09:47:22;2.50;;;1.40;;
11344;SDS011;5727;42.600;23.028;2022-07-21T09:49:52;1.93;;;1.30;;
11344;SDS011;5727;42.600;23.028;2022-07-21T09:52:21;2.80;;;1.13;;
11344;SDS011;5727;42.600;23.028;2022-07-21T09:54:50;2.77;;;1.40;;
11344;SDS011;5727;42.600;23.028;2022-07-21T09:57:20;1.20;;;1.02;;
11344;SDS011;5727;42.600;23.028;2022-07-21T09:59:49;3.10;;;1.60;;
11344;SDS011;5727;42.600;23.028;2022-07-21T10:02:19;1.90;;;1.37;;
11344;SDS011;5727;42.600;23.028;2022-07-21T10:04:51;2.10;;;1.37;;
11344;SDS011;5727;42.600;23.028;2022-07-21T10:07:24;3.63;;;1.27;;
11344;SDS011;5727;42.600;23.028;2022-07-21T10:09:52;3.90;;;1.50;;
11344;SDS011;5727;42.600;23.028;2022-07-21T10:12:20;2.83;;;1.67;;
11344;SDS011;5727;42.600;23.028;2022-07-21T10:14:47;2.17;;;1.07;;
11344;SDS011;5727;42.600;23.028;2022-07-21T10:17:15;2.67;;;1.50;;
11344;SDS011;5727;42.600;23.028;2022-07-21T10:19:47;2.90;;;1.10;;
11344;SDS011;5727;42.600;23.028;2022-07-21T10:22:29;2.63;;;1.00;;
11344;SDS011;5727;42.600;23.028;2022-07-21T10:25:05;2.30;;;1.20;;
11344;SDS011;5727;42.600;23.028;2022-07-21T10:27:33;3.17;;;1.80;;
11344;SDS011;5727;42.600;23.028;2022-07-21T10:30:01;3.80;;;1.93;;
11344;SDS011;5727;42.600;23.028;2022-07-21T10:32:50;5.85;;;1.80;;
11344;SDS011;5727;42.600;23.028;2022-07-21T10:35:26;6.78;;;2.90;;
11344;SDS011;5727;42.600;23.028;2022-07-21T10:37:58;3.42;;;2.95;;
11344;SDS011;5727;42.600;23.028;2022-07-21T10:49:00;5.65;;;3.58;;
11344;SDS011;5727;42.600;23.028;2022-07-21T10:51:29;7.38;;;3.75;;
11344;SDS011;5727;42.600;23.028;2022-07-21T10:54:21;4.40;;;3.53;;
11344;SDS011;5727;42.600;23.028;2022-07-21T11:02:50;5.15;;;2.45;;
11344;SDS011;5727;42.600;23.028;2022-07-21T11:05:25;3.75;;;2.13;;
11344;SDS011;5727;42.600;23.028;2022-07-21T11:08:09;2.70;;;1.88;;
11344;SDS011;5727;42.600;23.028;2022-07-21T11:10:43;2.10;;;1.80;;
11344;SDS011;5727;42.600;23.028;2022-07-21T11:13:13;5.25;;;2.22;;
11344;SDS011;5727;42.600;23.028;2022-07-21T11:15:54;3.83;;;2.13;;
11344;SDS011;5727;42.600;23.028;2022-07-21T11:18:23;7.15;;;1.73;;
11344;SDS011;5727;42.600;23.028;2022-07-21T11:21:10;7.47;;;2.47;;
11344;SDS011;5727;42.600;23.028;2022-07-21T11:23:43;3.92;;;2.17;;
11344;SDS011;5727;42.600;23.028;2022-07-21T11:26:13;3.03;;;1.80;;
11344;SDS011;5727;42.600;23.028;2022-07-21T11:28:45;7.80;;;2.15;;
11344;SDS011;5727;42.600;23.028;2022-07-21T11:31:15;4.25;;;2.17;;
11344;SDS011;5727;42.600;23.028;2022-07-21T11:33:47;4.38;;;1.92;;
11344;SDS011;5727;42.600;23.028;2022-07-21T11:36:28;3.20;;;1.75;;
11344;SDS011;5727;42.600;23.028;2022-07-21T11:38:59;6.22;;;1.85;;
11344;SDS011;5727;42.600;23.028;2022-07-21T11:41:30;2.90;;;1.35;;
11344;SDS011;5727;42.600;23.028;2022-07-21T11:44:02;4.88;;;1.52;;
11344;SDS011;5727;42.600;23.028;2022-07-21T11:46:44;2.30;;;1.65;;
11344;SDS011;5727;42.600;23.028;2022-07-21T11:49:12;1.92;;;1.55;;
11344;SDS011;5727;42.600;23.028;2022-07-21T11:51:48;3.78;;;1.77;;
11344;SDS011;5727;42.600;23.028;2022-07-21T11:54:27;3.15;;;1.70;;
11344;SDS011;5727;42.600;23.028;2022-07-21T11:56:59;2.50;;;1.67;;
11344;SDS011;5727;42.600;23.028;2022-07-21T11:59:30;5.57;;;1.80;;
11344;SDS011;5727;42.600;23.028;2022-07-21T12:02:03;2.28;;;1.52;;
11344;SDS011;5727;42.600;23.028;2022-07-21T12:04:42;2.80;;;1.38;;
11344;SDS011;5727;42.600;23.028;2022-07-21T12:07:14;2.47;;;1.65;;
11344;SDS011;5727;42.600;23.028;2022-07-21T12:09:45;3.70;;;1.10;;
11344;SDS011;5727;42.600;23.028;2022-07-21T12:15:37;2.75;;;1.35;;
11344;SDS011;5727;42.600;23.028;2022-07-21T12:18:25;2.28;;;1.33;;
11344;SDS011;5727;42.600;23.028;2022-07-21T12:21:03;3.88;;;1.65;;
11344;SDS011;5727;42.600;23.028;2022-07-21T12:23:37;2.88;;;1.40;;
11344;SDS011;5727;42.600;23.028;2022-07-21T12:26:06;3.85;;;1.42;;
11344;SDS011;5727;42.600;23.028;2022-07-21T12:28:48;3.80;;;1.50;;
11344;SDS011;5727;42.600;23.028;2022-07-21T12:31:21;3.63;;;1.33;;
11344;SDS011;5727;42.600;23.028;2022-07-21T12:33:50;3.22;;;1.48;;
11344;SDS011;5727;42.600;23.028;2022-07-21T12:36:25;2.85;;;1.20;;
11344;SDS011;5727;42.600;23.028;2022-07-21T12:38:55;5.82;;;1.52;;
11344;SDS011;5727;42.600;23.028;2022-07-21T12:41:28;2.75;;;1.50;;
11344;SDS011;5727;42.600;23.028;2022-07-21T12:43:55;2.55;;;1.23;;
11344;SDS011;5727;42.600;23.028;2022-07-21T12:46:44;3.35;;;1.67;;
11344;SDS011;5727;42.600;23.028;2022-07-21T12:54:37;3.08;;;1.50;;
11344;SDS011;5727;42.600;23.028;2022-07-21T12:57:05;1.73;;;1.02;;
11344;SDS011;5727;42.600;23.028;2022-07-21T12:59:34;3.50;;;1.17;;
11344;SDS011;5727;42.600;23.028;2022-07-21T13:02:08;6.00;;;1.50;;
11344;SDS011;5727;42.600;23.028;2022-07-21T13:04:40;4.03;;;1.63;;
11344;SDS011;5727;42.600;23.028;2022-07-21T13:07:09;2.20;;;1.25;;
11344;SDS011;5727;42.600;23.028;2022-07-21T13:09:48;4.43;;;1.42;;
11344;SDS011;5727;42.600;23.028;2022-07-21T13:12:16;2.42;;;1.38;;
11344;SDS011;5727;42.600;23.028;2022-07-21T13:14:43;4.40;;;1.33;;
11344;SDS011;5727;42.600;23.028;2022-07-21T13:17:13;2.53;;;1.10;;
11344;SDS011;5727;42.600;23.028;2022-07-21T13:19:49;3.67;;;1.30;;
11344;SDS011;5727;42.600;23.028;2022-07-21T13:22:21;2.72;;;1.58;;
11344;SDS011;5727;42.600;23.028;2022-07-21T13:24:49;4.03;;;1.17;;
11344;SDS011;5727;42.600;23.028;2022-07-21T13:30:10;2.50;;;1.20;;
11344;SDS011;5727;42.600;23.028;2022-07-21T13:32:58;3.17;;;1.20;;
11344;SDS011;5727;42.600;23.028;2022-07-21T13:35:31;2.97;;;1.17;;
11344;SDS011;5727;42.600;23.028;2022-07-21T13:38:18;2.13;;;1.27;;
11344;SDS011;5727;42.600;23.028;2022-07-21T13:40:57;4.38;;;1.40;;
11344;SDS011;5727;42.600;23.028;2022-07-21T13:43:27;4.57;;;1.35;;
11344;SDS011;5727;42.600;23.028;2022-07-21T13:45:56;2.33;;;1.00;;
11344;SDS011;5727;42.600;23.028;2022-07-21T13:48:31;2.60;;;1.05;;
11344;SDS011;5727;42.600;23.028;2022-07-21T13:50:59;5.63;;;1.45;;
11344;SDS011;5727;42.600;23.028;2022-07-21T13:53:33;2.33;;;1.40;;
11344;SDS011;5727;42.600;23.028;2022-07-21T13:56:02;4.35;;;1.40;;
11344;SDS011;5727;42.600;23.028;2022-07-21T13:58:38;4.38;;;1.33;;
11344;SDS011;5727;42.600;23.028;2022-07-21T14:01:06;4.85;;;1.33;;
11344;SDS011;5727;42.600;23.028;2022-07-21T14:03:38;3.90;;;1.67;;
11344;SDS011;5727;42.600;23.028;2022-07-21T14:06:11;5.97;;;1.30;;
11344;SDS011;5727;42.600;23.028;2022-07-21T14:08:38;3.78;;;1.23;;
11344;SDS011;5727;42.600;23.028;2022-07-21T14:11:06;3.80;;;1.10;;
11344;SDS011;5727;42.600;23.028;2022-07-21T14:13:35;3.00;;;1.13;;
11344;SDS011;5727;42.600;23.028;2022-07-21T14:16:07;3.20;;;1.33;;
11344;SDS011;5727;42.600;23.028;2022-07-21T14:18:38;2.75;;;1.35;;
11344;SDS011;5727;42.600;23.028;2022-07-21T14:21:08;2.60;;;1.17;;
11344;SDS011;5727;42.600;23.028;2022-07-21T14:23:35;3.42;;;1.10;;
11344;SDS011;5727;42.600;23.028;2022-07-21T14:26:04;2.42;;;1.00;;
11344;SDS011;5727;42.600;23.028;2022-07-21T14:28:32;3.45;;;1.23;;
11344;SDS011;5727;42.600;23.028;2022-07-21T14:31:00;2.45;;;1.27;;
11344;SDS011;5727;42.600;23.028;2022-07-21T14:33:37;5.65;;;1.30;;
11344;SDS011;5727;42.600;23.028;2022-07-21T14:36:06;5.25;;;1.42;;
11344;SDS011;5727;42.600;23.028;2022-07-21T14:38:35;3.88;;;1.52;;
11344;SDS011;5727;42.600;23.028;2022-07-21T14:41:02;4.55;;;1.50;;
11344;SDS011;5727;42.600;23.028;2022-07-21T14:43:33;3.53;;;1.13;;
11344;SDS011;5727;42.600;23.028;2022-07-21T14:46:00;3.45;;;1.05;;
11344;SDS011;5727;42.600;23.028;2022-07-21T14:48:28;2.95;;;1.05;;
11344;SDS011;5727;42.600;23.028;2022-07-21T14:51:01;4.82;;;1.23;;
11344;SDS011;5727;42.600;23.028;2022-07-21T14:53:33;2.47;;;0.93;;
11344;SDS011;5727;42.600;23.028;2022-07-21T14:56:04;5.68;;;1.15;;
11344;SDS011;5727;42.600;23.028;2022-07-21T14:58:31;7.95;;;1.55;;
11344;SDS011;5727;42.600;23.028;2022-07-21T15:01:00;2.33;;;1.15;;
11344;SDS011;5727;42.600;23.028;2022-07-21T15:03:28;4.72;;;1.08;;
11344;SDS011;5727;42.600;23.028;2022-07-21T15:05:55;4.10;;;1.40;;
11344;SDS011;5727;42.600;23.028;2022-07-21T15:08:24;2.92;;;1.30;;
11344;SDS011;5727;42.600;23.028;2022-07-21T15:10:54;6.75;;;1.40;;
11344;SDS011;5727;42.600;23.028;2022-07-21T15:13:23;3.63;;;1.10;;
11344;SDS011;5727;42.600;23.028;2022-07-21T15:15:54;5.13;;;1.60;;
11344;SDS011;5727;42.600;23.028;2022-07-21T15:18:28;5.13;;;1.20;;
11344;SDS011;5727;42.600;23.028;2022-07-21T15:20:55;2.55;;;1.17;;
11344;SDS011;5727;42.600;23.028;2022-07-21T15:23:27;1.98;;;1.30;;
11344;SDS011;5727;42.600;23.028;2022-07-21T15:25:54;3.85;;;1.40;;
11344;SDS011;5727;42.600;23.028;2022-07-21T15:28:24;3.40;;;1.45;;
11344;SDS011;5727;42.600;23.028;2022-07-21T15:30:51;5.45;;;1.40;;
11344;SDS011;5727;42.600;23.028;2022-07-21T15:33:26;2.92;;;1.33;;
11344;SDS011;5727;42.600;23.028;2022-07-21T15:35:53;5.15;;;1.95;;
11344;SDS011;5727;42.600;23.028;2022-07-21T15:41:15;3.22;;;1.60;;
11344;SDS011;5727;42.600;23.028;2022-07-21T15:43:43;3.25;;;1.45;;
11344;SDS011;5727;42.600;23.028;2022-07-21T15:46:10;3.15;;;1.33;;
11344;SDS011;5727;42.600;23.028;2022-07-21T15:48:37;2.88;;;1.55;;
11344;SDS011;5727;42.600;23.028;2022-07-21T15:51:10;3.40;;;1.50;;
11344;SDS011;5727;42.600;23.028;2022-07-21T15:53:37;5.10;;;1.30;;
11344;SDS011;5727;42.600;23.028;2022-07-21T15:56:06;4.22;;;1.42;;